Time;durP1;ratioP1;P1;durP2;ratioP2;P2;SDS_P1;SDS_P2;PMS_P1;PMS_P2;Temp;Humidity;BMP_temperature;BMP_pressure;BME280_temperature;BME280_humidity;BME280_pressure;Samples;Min_cycle;Max_cycle;Signal;HPM_P1;HPM_P2
2022/10/12 00:00:48;;;;;;;9.40;4.73;;;;;;;8.39;99.35;101224.84;5014963;28;20048;-74
2022/10/12 00:03:13;;;;;;;7.10;4.60;;;;;;;8.29;99.35;101216.81;5032506;28;20095;-74
2022/10/12 00:05:39;;;;;;;6.30;4.33;;;;;;;8.27;99.92;101216.09;5032435;28;20461;-73
2022/10/12 00:08:04;;;;;;;11.97;5.70;;;;;;;8.29;100.00;101223.94;5032230;28;20071;-73
2022/10/12 00:10:30;;;;;;;7.87;5.00;;;;;;;8.36;100.00;101220.63;5033300;28;20545;-73
2022/10/12 00:12:55;;;;;;;11.90;4.60;;;;;;;8.42;99.30;101237.00;5032558;28;20034;-76
2022/10/12 00:15:21;;;;;;;10.33;4.73;;;;;;;8.41;99.72;101233.50;5033962;28;20028;-74
2022/10/12 00:17:47;;;;;;;8.87;6.70;;;;;;;8.51;99.43;101238.81;5034322;28;20024;-75
2022/10/12 00:20:12;;;;;;;10.63;4.20;;;;;;;8.50;99.32;101230.00;5034199;28;20112;-74
2022/10/12 00:22:38;;;;;;;11.17;5.33;;;;;;;8.57;99.05;101238.25;5033260;28;20029;-74
2022/10/12 00:25:04;;;;;;;9.33;5.10;;;;;;;8.50;98.79;101223.88;5014791;28;20112;-73
2022/10/12 00:27:29;;;;;;;7.03;4.37;;;;;;;8.56;98.54;101242.72;5032181;28;20019;-73
2022/10/12 00:29:55;;;;;;;8.07;4.33;;;;;;;8.58;99.03;101242.59;5032406;28;20033;-75
2022/10/12 00:32:21;;;;;;;10.80;4.17;;;;;;;8.61;98.30;101247.63;5014362;28;20107;-74
2022/10/12 00:34:47;;;;;;;8.33;3.63;;;;;;;8.60;98.39;101251.25;5031746;28;20041;-75
2022/10/12 00:37:12;;;;;;;7.87;4.47;;;;;;;8.61;98.70;101253.78;5014180;28;20164;-74
2022/10/12 00:39:38;;;;;;;13.43;4.90;;;;;;;8.55;99.10;101241.06;5032364;28;20026;-74
2022/10/12 00:42:04;;;;;;;14.93;5.50;;;;;;;8.50;98.67;101248.59;5032044;28;20041;-76
2022/10/12 00:44:46;;;;;;;9.43;4.47;;;;;;;8.53;99.06;101242.16;5031815;28;20026;-74
2022/10/12 00:47:52;;;;;;;9.63;4.70;;;;;;;8.62;98.82;101259.91;5031922;28;20028;-74
2022/10/12 00:50:26;;;;;;;8.23;4.97;;;;;;;8.66;98.89;101258.66;4932741;29;20454;-73
2022/10/12 00:53:08;;;;;;;7.50;4.70;;;;;;;8.68;98.52;101262.88;5002899;28;20076;-74
2022/10/12 00:55:39;;;;;;;15.53;4.87;;;;;;;8.61;98.67;101266.22;5031844;28;20025;-74
2022/10/12 00:58:07;;;;;;;7.00;4.20;;;;;;;8.50;98.05;101243.28;5031874;28;20028;-74
2022/10/12 01:00:34;;;;;;;6.93;4.25;;;;;;;8.55;98.50;101258.78;5031937;28;20021;-74
2022/10/12 01:03:00;;;;;;;9.63;4.40;;;;;;;8.56;98.63;101258.66;5031847;28;20037;-74
2022/10/12 01:05:27;;;;;;;9.90;5.10;;;;;;;8.56;98.50;101261.31;5031773;28;20021;-75
2022/10/12 01:07:52;;;;;;;9.27;4.40;;;;;;;8.59;98.35;101273.47;5031719;28;20034;-75
2022/10/12 01:10:21;;;;;;;13.43;5.60;;;;;;;8.56;98.55;101263.13;5013927;28;20527;-75
2022/10/12 01:12:48;;;;;;;;;;;;;;;8.64;98.51;101276.53;5031950;28;20365;-74
2022/10/12 01:15:14;;;;;;;4.67;3.87;;;;;;;8.53;98.39;101263.41;5031827;28;19909;-74
2022/10/12 01:17:56;;;;;;;9.20;4.77;;;;;;;8.56;98.43;101273.75;5031957;28;20087;-76
2022/10/12 01:20:36;;;;;;;6.97;4.47;;;;;;;8.56;99.13;101273.75;5031764;28;20029;-75
2022/10/12 01:23:16;;;;;;;9.40;4.10;;;;;;;8.62;98.50;101279.34;5031484;28;20037;-74
2022/10/12 01:25:57;;;;;;;9.17;4.10;;;;;;;8.61;98.78;101272.34;5036121;28;20039;-74
2022/10/12 01:28:46;;;;;;;8.63;4.53;;;;;;;8.62;98.92;101278.50;5036357;28;20057;-74
2022/10/12 01:31:17;;;;;;;7.63;4.33;;;;;;;8.61;98.79;101276.81;5035903;28;20041;-74
2022/10/12 01:33:51;;;;;;;8.83;5.27;;;;;;;8.65;99.10;101276.41;5036853;28;20077;-74
2022/10/12 01:36:36;;;;;;;7.40;4.27;;;;;;;8.55;98.75;101258.78;5036071;28;20041;-73
2022/10/12 01:39:37;;;;;;;6.60;4.47;;;;;;;8.64;98.72;101281.84;5036143;28;20036;-74
2022/10/12 01:42:08;;;;;;;9.20;4.90;;;;;;;8.57;98.90;101267.47;5035425;28;20065;-74
2022/10/12 01:44:34;;;;;;;13.37;5.07;;;;;;;8.55;99.20;101285.34;5035284;28;20091;-75
2022/10/12 01:47:00;;;;;;;8.90;4.60;;;;;;;8.47;99.57;101277.22;5035242;28;20037;-74
2022/10/12 01:49:29;;;;;;;9.90;4.23;;;;;;;8.48;99.23;101287.72;5034944;28;20022;-74
2022/10/12 01:52:29;;;;;;;10.97;4.40;;;;;;;8.57;99.19;101296.66;5034912;28;20029;-73
2022/10/12 01:55:09;;;;;;;11.70;5.37;;;;;;;8.60;99.75;101299.88;5028858;28;20045;-74
2022/10/12 01:58:10;;;;;;;7.80;3.93;;;;;;;8.64;98.91;101305.75;5035129;28;20112;-75
2022/10/12 02:01:03;;;;;;;9.00;5.17;;;;;;;8.44;98.68;101270.38;5034637;28;20029;-73
2022/10/12 02:03:47;;;;;;;9.20;4.13;;;;;;;8.64;98.19;101316.38;5034706;28;20354;-73
2022/10/12 02:06:19;;;;;;;9.20;4.60;;;;;;;8.49;98.89;101293.84;5034871;28;20121;-73
2022/10/12 02:08:44;;;;;;;9.27;3.80;;;;;;;8.57;99.08;101317.91;5034527;28;20071;-74
2022/10/12 02:11:15;;;;;;;11.03;4.30;;;;;;;8.54;99.20;101312.88;5034358;28;20056;-73
2022/10/12 02:13:49;;;;;;;8.07;4.23;;;;;;;8.55;99.46;101314.56;5034645;28;20028;-74
2022/10/12 02:16:19;;;;;;;7.60;4.03;;;;;;;8.52;99.29;101314.81;5035310;28;20057;-74
2022/10/12 02:18:49;;;;;;;8.20;4.03;;;;;;;8.52;99.82;101304.19;5037970;28;20346;-74
2022/10/12 02:21:19;;;;;;;5.97;3.70;;;;;;;8.47;99.22;101293.16;5059049;28;20022;-75
2022/10/12 02:23:49;;;;;;;6.40;3.60;;;;;;;8.52;99.73;101312.16;5057585;28;20081;-75
2022/10/12 02:26:15;;;;;;;10.93;3.97;;;;;;;8.56;99.84;101316.22;5042867;28;20036;-73
2022/10/12 02:28:43;;;;;;;8.93;3.40;;;;;;;8.56;99.01;101324.19;5036456;28;20026;-73
2022/10/12 02:31:23;;;;;;;6.93;3.50;;;;;;;8.57;99.72;101326.72;5038992;28;20388;-73
2022/10/12 02:33:59;;;;;;;7.50;4.03;;;;;;;8.53;99.23;101313.84;5014636;28;20461;-74
2022/10/12 02:36:33;;;;;;;5.57;3.37;;;;;;;8.57;99.80;101328.53;5014699;28;20113;-73
2022/10/12 02:39:17;;;;;;;5.80;3.43;;;;;;;8.55;99.78;101326.00;5014721;28;20053;-73
2022/10/12 02:41:49;;;;;;;19.03;5.47;;;;;;;8.53;100.00;101327.13;5014374;28;20163;-75
2022/10/12 02:44:22;;;;;;;9.07;3.23;;;;;;;8.57;99.78;101331.19;5013909;28;20080;-74
2022/10/12 02:46:49;;;;;;;6.00;3.50;;;;;;;8.50;100.00;101335.34;5014247;28;20052;-74
2022/10/12 02:49:17;;;;;;;8.23;3.70;;;;;;;8.44;100.00;101331.44;5014156;28;20113;-74
2022/10/12 02:51:44;;;;;;;6.20;3.72;;;;;;;8.40;100.00;101335.34;5014205;28;20057;-75
2022/10/12 02:54:10;;;;;;;9.77;3.73;;;;;;;8.29;100.00;101336.22;5013927;28;20072;-76
2022/10/12 02:56:43;;;;;;;6.63;3.67;;;;;;;8.11;100.00;101305.16;5013615;28;20024;-74
2022/10/12 02:59:08;;;;;;;8.33;3.23;;;;;;;8.25;100.00;101339.28;5013945;28;20022;-73
2022/10/12 03:01:34;;;;;;;8.53;3.43;;;;;;;8.28;100.00;101344.31;5013810;28;20032;-74
2022/10/12 03:03:59;;;;;;;6.27;3.47;;;;;;;8.25;100.00;101332.16;4996306;28;20373;-75
2022/10/12 03:06:26;;;;;;;9.03;4.70;;;;;;;8.28;100.00;101339.84;5013622;28;20041;-74
2022/10/12 03:08:52;;;;;;;10.53;3.73;;;;;;;8.33;100.00;101347.41;5013742;28;20084;-73
2022/10/12 03:11:17;;;;;;;6.30;4.23;;;;;;;8.37;100.00;101344.38;5013684;28;20530;-74
2022/10/12 03:13:43;;;;;;;9.00;4.40;;;;;;;8.48;100.00;101353.22;5015485;28;20068;-74
2022/10/12 03:16:10;;;;;;;9.63;3.53;;;;;;;8.46;100.00;101353.38;5014189;28;20034;-74
2022/10/12 03:18:37;;;;;;;6.43;3.43;;;;;;;8.47;100.00;101354.22;4996161;28;20033;-74
2022/10/12 03:21:03;;;;;;;11.03;3.50;;;;;;;8.42;100.00;101349.31;5013509;28;20040;-74
2022/10/12 03:23:29;;;;;;;6.00;4.30;;;;;;;8.41;100.00;101346.78;5013543;28;20354;-73
2022/10/12 03:25:55;;;;;;;6.93;3.30;;;;;;;8.41;100.00;101354.75;5013500;28;20048;-74
2022/10/12 03:28:20;;;;;;;4.03;2.80;;;;;;;8.33;100.00;101353.59;5017138;28;20033;-74
2022/10/12 03:30:46;;;;;;;12.30;3.43;;;;;;;8.24;100.00;101356.19;5015434;28;20064;-74
2022/10/12 03:33:12;;;;;;;7.00;2.80;;;;;;;8.15;100.00;101349.03;5030677;28;20049;-74
2022/10/12 03:35:38;;;;;;;7.13;3.07;;;;;;;8.12;100.00;101352.78;5016033;28;20069;-73
2022/10/12 03:38:04;;;;;;;8.40;3.30;;;;;;;8.05;100.00;101346.31;5033657;28;20473;-75
2022/10/12 03:40:29;;;;;;;7.53;2.97;;;;;;;8.05;100.00;101356.91;5032784;28;20025;-74
2022/10/12 03:42:55;;;;;;;6.50;3.10;;;;;;;7.98;100.00;101335.38;5033220;28;20594;-73
2022/10/12 03:45:21;;;;;;;6.90;2.93;;;;;;;8.07;100.00;101352.31;5033008;28;20120;-74
2022/10/12 03:47:47;;;;;;;5.30;3.00;;;;;;;8.16;100.00;101361.31;5032144;28;20043;-75
2022/10/12 03:50:12;;;;;;;3.57;2.40;;;;;;;8.20;100.00;101362.72;5033082;28;20385;-74
2022/10/12 03:52:39;;;;;;;6.00;2.63;;;;;;;8.18;100.00;101360.22;5015103;28;20076;-74
2022/10/12 03:55:05;;;;;;;6.83;3.03;;;;;;;8.12;100.00;101352.78;5032524;28;20033;-74
2022/10/12 03:57:30;;;;;;;6.57;2.73;;;;;;;8.11;100.00;101353.75;5032767;28;20029;-74
2022/10/12 03:59:56;;;;;;;3.90;2.27;;;;;;;8.00;100.00;101348.50;5032715;28;20038;-74
2022/10/12 04:02:21;;;;;;;8.73;3.07;;;;;;;7.90;100.00;101371.50;5032709;28;20033;-75
2022/10/12 04:04:47;;;;;;;5.67;3.03;;;;;;;7.79;100.00;101375.03;5032686;28;20080;-75
2022/10/12 04:07:12;;;;;;;7.97;3.33;;;;;;;7.69;100.00;101369.69;5032698;28;20028;-77
2022/10/12 04:09:38;;;;;;;8.87;2.93;;;;;;;7.59;100.00;101374.09;5032687;28;20108;-75
2022/10/12 04:12:04;;;;;;;5.03;2.87;;;;;;;7.55;100.00;101377.13;5032836;28;20037;-76
2022/10/12 04:14:29;;;;;;;5.57;2.83;;;;;;;7.49;100.00;101378.44;5033599;28;20033;-75
2022/10/12 04:16:55;;;;;;;6.40;3.53;;;;;;;7.37;100.00;101377.69;5032408;28;20021;-75
2022/10/12 04:19:21;;;;;;;9.90;3.07;;;;;;;7.35;100.00;101382.25;5032699;28;20022;-77
2022/10/12 04:21:47;;;;;;;6.50;2.93;;;;;;;7.32;100.00;101379.03;5031653;28;20584;-75
2022/10/12 04:24:13;;;;;;;6.13;3.10;;;;;;;7.28;100.00;101385.56;5032771;28;20346;-73
2022/10/12 04:26:38;;;;;;;10.20;3.13;;;;;;;7.20;100.00;101377.38;5014512;28;20030;-75
2022/10/12 04:29:04;;;;;;;8.23;3.07;;;;;;;7.18;100.00;101384.59;5032334;28;20025;-74
2022/10/12 04:31:29;;;;;;;10.10;3.70;;;;;;;7.15;100.00;101394.47;5032017;28;20487;-75
2022/10/12 04:33:56;;;;;;;10.13;3.57;;;;;;;7.08;100.00;101390.66;5032253;28;20048;-77
2022/10/12 04:36:25;;;;;;;14.25;3.97;;;;;;;7.09;100.00;101397.63;5014474;28;20049;-75
2022/10/12 04:38:51;;;;;;;8.70;3.63;;;;;;;7.07;100.00;101388.97;5032349;28;20582;-77
2022/10/12 04:41:16;;;;;;;6.63;3.60;;;;;;;7.19;100.00;101397.72;5032462;28;20105;-76
2022/10/12 04:43:42;;;;;;;6.97;3.20;;;;;;;7.32;100.00;101400.22;5033061;28;20192;-79
2022/10/12 04:46:07;;;;;;;8.27;3.60;;;;;;;7.34;100.00;101399.13;5032384;28;20109;-73
2022/10/12 04:48:36;;;;;;;9.63;3.40;;;;;;;7.39;100.00;101401.41;5032306;28;20115;-75
2022/10/12 04:51:01;;;;;;;6.82;4.13;;;;;;;7.36;100.00;101406.94;5032131;28;20315;-74
2022/10/12 04:53:27;;;;;;;6.63;3.20;;;;;;;7.29;100.00;101403.13;5031367;28;20044;-75
2022/10/12 04:55:53;;;;;;;5.53;3.77;;;;;;;7.24;100.00;101406.16;5030764;28;20118;-76
2022/10/12 04:58:19;;;;;;;8.77;4.03;;;;;;;7.19;100.00;101402.19;5034138;28;20029;-75
2022/10/12 05:00:46;;;;;;;6.37;3.43;;;;;;;7.14;100.00;101406.03;5036077;28;20431;-74
2022/10/12 05:03:13;;;;;;;5.63;3.27;;;;;;;7.12;100.00;101407.13;5035460;28;20376;-75
2022/10/12 05:05:43;;;;;;;12.27;5.27;;;;;;;7.10;100.00;101406.41;5017682;28;20037;-74
2022/10/12 05:08:09;;;;;;;13.93;4.37;;;;;;;7.02;100.00;101401.75;5018500;28;20029;-74
2022/10/12 05:10:34;;;;;;;6.87;3.37;;;;;;;7.11;100.00;101422.19;5036117;28;20021;-75
2022/10/12 05:13:00;;;;;;;9.47;4.37;;;;;;;7.04;100.00;101414.88;5017897;28;20120;-74
2022/10/12 05:15:26;;;;;;;11.50;4.70;;;;;;;7.07;100.00;101409.31;5018209;28;20021;-74
2022/10/12 05:17:51;;;;;;;5.83;4.33;;;;;;;7.14;100.00;101421.94;5039057;28;20161;-75
2022/10/12 05:20:17;;;;;;;8.60;4.33;;;;;;;7.06;100.00;101419.06;5020262;28;20354;-77
2022/10/12 05:22:43;;;;;;;7.07;4.27;;;;;;;7.09;100.00;101424.13;5038794;28;20056;-76
2022/10/12 05:25:08;;;;;;;9.87;4.10;;;;;;;7.10;100.00;101425.81;5042962;28;20021;-76
2022/10/12 05:27:34;;;;;;;9.43;4.07;;;;;;;7.12;100.00;101429.16;5040663;28;20021;-74
2022/10/12 05:29:59;;;;;;;5.40;3.57;;;;;;;7.12;100.00;101418.56;5022344;28;20116;-74
2022/10/12 05:32:31;;;;;;;7.00;4.13;;;;;;;7.34;100.00;101432.72;4989817;28;20041;-75
2022/10/12 05:34:58;;;;;;;9.33;4.10;;;;;;;7.59;100.00;101437.72;5025818;28;20080;-73
2022/10/12 05:37:24;;;;;;;6.13;3.77;;;;;;;7.84;100.00;101433.88;5038814;28;20124;-74
2022/10/12 05:39:50;;;;;;;7.47;3.83;;;;;;;7.94;100.00;101432.09;5038665;28;20022;-74
2022/10/12 05:42:16;;;;;;;5.97;3.23;;;;;;;7.94;100.00;101431.25;5038362;28;20029;-75
2022/10/12 05:44:42;;;;;;;6.97;2.83;;;;;;;7.96;100.00;101431.97;5037606;28;20032;-74
2022/10/12 05:47:07;;;;;;;4.67;2.50;;;;;;;8.04;100.00;101445.44;5036480;28;20408;-74
2022/10/12 05:49:33;;;;;;;7.70;2.97;;;;;;;8.23;100.00;101448.22;5036113;28;20025;-73
2022/10/12 05:51:59;;;;;;;5.27;3.20;;;;;;;8.32;100.00;101458.03;5040085;28;20017;-76
2022/10/12 05:54:25;;;;;;;3.53;2.97;;;;;;;8.34;100.00;101445.50;5020541;28;20029;-81
2022/10/12 05:56:50;;;;;;;6.10;3.13;;;;;;;8.34;100.00;101464.06;5042552;28;20035;-77
2022/10/12 06:03:28;;;;;;;6.07;2.97;;;;;;;8.36;100.00;101474.56;5041096;28;20044;-79
2022/10/12 06:05:53;;;;;;;5.10;2.90;;;;;;;8.13;100.00;101463.25;5020347;28;20041;-77
2022/10/12 06:08:19;;;;;;;6.20;3.20;;;;;;;8.24;100.00;101476.44;5003666;28;20357;-78
2022/10/12 06:10:50;;;;;;;9.63;3.50;;;;;;;8.29;100.00;101486.66;5033601;28;20472;-78
2022/10/12 06:13:16;;;;;;;4.27;3.20;;;;;;;8.29;100.00;101482.19;5036669;28;20088;-78
2022/10/12 06:15:46;;;;;;;4.80;2.57;;;;;;;8.26;100.00;101479.78;5020702;28;20108;-77
2022/10/12 06:18:12;;;;;;;5.77;3.00;;;;;;;8.17;100.00;101483.22;5042595;28;20028;-77
2022/10/12 06:20:39;;;;;;;6.30;3.50;;;;;;;8.24;100.00;101502.97;5041158;28;20035;-76
2022/10/12 06:23:05;;;;;;;3.83;2.77;;;;;;;8.25;100.00;101503.81;4993373;28;20037;-77
2022/10/12 06:25:30;;;;;;;6.17;3.20;;;;;;;8.26;100.00;101493.06;5020757;28;20112;-77
2022/10/12 06:27:56;;;;;;;6.53;3.23;;;;;;;8.30;100.00;101499.78;5037986;28;20033;-78
2022/10/12 06:30:21;;;;;;;3.60;3.17;;;;;;;8.19;100.00;101494.56;5004843;28;20116;-77
2022/10/12 06:32:48;;;;;;;6.50;3.63;;;;;;;8.22;100.00;101499.59;5041138;28;20076;-80
2022/10/12 06:35:14;;;;;;;7.83;3.20;;;;;;;8.21;100.00;101492.63;5020283;28;20121;-78
2022/10/12 06:37:39;;;;;;;4.93;3.13;;;;;;;8.04;100.00;101474.59;5039616;28;20056;-78
2022/10/12 06:40:09;;;;;;;4.97;3.30;;;;;;;8.17;100.00;101512.41;5037763;28;20037;-77
2022/10/12 06:42:34;;;;;;;6.33;3.93;;;;;;;8.14;100.00;101502.06;5024927;28;20025;-77
2022/10/12 06:45:00;;;;;;;4.50;3.20;;;;;;;8.21;100.00;101519.16;5058870;28;20025;-78
2022/10/12 06:47:26;;;;;;;4.43;2.90;;;;;;;8.31;100.00;101501.47;5051040;28;20036;-76
2022/10/12 06:49:51;;;;;;;3.33;3.00;;;;;;;8.40;100.00;101496.41;5036165;28;20037;-76
2022/10/12 06:52:17;;;;;;;8.17;3.10;;;;;;;8.44;100.00;101498.66;5035671;28;20128;-77
2022/10/12 06:54:42;;;;;;;11.83;2.97;;;;;;;8.58;100.00;101505.44;5035083;28;20052;-78
2022/10/12 06:57:08;;;;;;;5.03;3.20;;;;;;;8.69;100.00;101508.88;5016365;28;20382;-79
2022/10/12 06:59:33;;;;;;;9.53;3.40;;;;;;;8.75;100.00;101490.72;5016031;28;20025;-77
2022/10/12 07:01:59;;;;;;;7.73;3.00;;;;;;;8.87;100.00;101490.47;5033683;28;20037;-78
2022/10/12 07:44:15;;;;;;;10.63;2.83;;;;;;;9.74;95.64;101543.03;5022802;23;20058;-80
2022/10/12 07:47:05;;;;;;;6.33;2.83;;;;;;;10.01;94.77;101537.03;4983708;28;20461;-78
2022/10/12 07:49:30;;;;;;;4.57;2.17;;;;;;;10.03;93.78;101514.63;4979100;28;20220;-79
2022/10/12 07:51:59;;;;;;;3.07;1.87;;;;;;;10.05;92.27;101517.97;4980073;28;20063;-79
2022/10/12 07:54:25;;;;;;;3.65;2.30;;;;;;;10.23;92.37;101539.44;4998823;28;20076;-78
2022/10/12 07:56:50;;;;;;;5.17;2.63;;;;;;;10.22;92.31;101517.31;4962496;28;20027;-78
2022/10/12 07:59:16;;;;;;;6.53;2.93;;;;;;;10.51;91.55;101545.72;4989594;28;20026;-78
2022/10/12 08:01:41;;;;;;;4.37;3.00;;;;;;;10.59;90.99;101537.84;4985005;28;20038;-78
2022/10/12 08:04:09;;;;;;;4.93;2.57;;;;;;;10.58;90.71;101530.84;5018385;28;20035;-78
2022/10/12 08:06:34;;;;;;;5.30;2.80;;;;;;;10.62;90.59;101534.88;5001319;28;20022;-79
2022/10/12 08:09:01;;;;;;;5.00;2.13;;;;;;;10.67;90.98;101548.59;4998698;28;20053;-78
2022/10/12 08:11:27;;;;;;;9.93;2.87;;;;;;;10.42;91.32;101538.59;5001322;28;20019;-78
2022/10/12 08:13:54;;;;;;;3.50;2.20;;;;;;;10.40;91.39;101543.19;4984658;28;20069;-78
2022/10/12 08:16:21;;;;;;;2.53;2.00;;;;;;;10.42;91.65;101555.41;4982211;28;20482;-80
2022/10/12 08:18:48;;;;;;;3.40;2.33;;;;;;;10.49;91.21;101550.34;4975808;28;20030;-77
2022/10/12 08:21:14;;;;;;;4.57;2.53;;;;;;;10.37;90.32;101530.16;4979203;28;20030;-79
2022/10/12 08:23:43;;;;;;;5.73;2.47;;;;;;;10.41;90.22;101548.41;4979058;28;20041;-77
2022/10/12 08:26:09;;;;;;;2.28;2.03;;;;;;;10.42;90.73;101557.22;4962843;28;20034;-77
2022/10/12 08:29:00;;;;;;;3.27;2.97;;;;;;;10.58;89.91;101565.47;4976307;28;20042;-78
2022/10/12 08:31:26;;;;;;;2.53;2.07;;;;;;;10.69;90.15;101559.13;4992748;28;20089;-78
2022/10/12 08:33:51;;;;;;;4.93;2.30;;;;;;;10.81;89.34;101564.16;4992428;28;20541;-79
2022/10/12 08:36:17;;;;;;;4.93;2.53;;;;;;;10.86;88.90;101558.38;4975441;28;20530;-77
2022/10/12 08:38:44;;;;;;;5.43;2.43;;;;;;;10.92;88.79;101562.28;4992899;28;20026;-78
2022/10/12 08:41:22;;;;;;;4.03;2.70;;;;;;;10.91;88.47;101555.28;4992751;28;20033;-79
2022/10/12 08:44:07;;;;;;;4.13;2.33;;;;;;;10.92;88.19;101562.28;4972976;28;20482;-79
2022/10/12 08:46:33;;;;;;;3.93;2.57;;;;;;;10.82;88.45;101557.84;4972022;28;20129;-77
2022/10/12 08:49:11;;;;;;;5.80;2.30;;;;;;;10.95;88.33;101568.16;4973374;28;20027;-78
2022/10/12 08:51:48;;;;;;;5.30;2.43;;;;;;;10.84;88.89;101563.88;4974420;28;20031;-79
2022/10/12 08:54:28;;;;;;;14.27;6.97;;;;;;;10.83;88.50;101551.53;4974332;28;20054;-77
2022/10/12 08:56:54;;;;;;;5.03;2.77;;;;;;;10.85;88.49;101570.03;4973434;28;20026;-79
2022/10/12 08:59:20;;;;;;;7.03;3.10;;;;;;;10.74;89.00;101565.72;4973690;28;20094;-76
2022/10/12 09:02:17;;;;;;;7.03;2.63;;;;;;;10.85;89.50;101568.19;4973478;28;20471;-79
2022/10/12 09:04:57;;;;;;;7.20;2.90;;;;;;;10.95;88.69;101572.66;4974943;28;20050;-77
2022/10/12 09:07:35;;;;;;;7.53;2.67;;;;;;;10.99;88.78;101580.25;4974178;28;20031;-78
2022/10/12 09:10:19;;;;;;;5.68;2.28;;;;;;;11.16;87.94;101576.78;4973461;28;20029;-78
2022/10/12 09:13:15;;;;;;;3.73;2.33;;;;;;;11.27;86.87;101567.75;4973041;28;20026;-78
2022/10/12 09:15:58;;;;;;;6.23;2.90;;;;;;;11.44;86.56;101585.66;4972856;28;20019;-77
2022/10/12 09:18:43;;;;;;;4.47;2.27;;;;;;;11.59;86.19;101561.16;4973200;28;20027;-77
2022/10/12 09:21:16;;;;;;;5.57;2.90;;;;;;;11.78;84.55;101582.41;4973122;28;20023;-79
2022/10/12 09:23:43;;;;;;;2.93;2.30;;;;;;;11.84;83.49;101576.44;4973181;28;20150;-79
2022/10/12 09:26:16;;;;;;;3.10;2.07;;;;;;;11.73;82.72;101573.97;4973100;28;20027;-77
2022/10/12 09:28:45;;;;;;;3.03;1.80;;;;;;;11.55;83.04;101575.75;4973318;28;20061;-78
2022/10/12 09:31:21;;;;;;;9.33;3.80;;;;;;;11.76;82.30;101582.50;4973430;28;20471;-77
2022/10/12 09:33:56;;;;;;;4.83;2.47;;;;;;;11.98;81.81;101561.75;4961864;28;20126;-77
2022/10/12 09:36:24;;;;;;;4.07;2.20;;;;;;;12.06;80.38;101557.31;4974366;28;20556;-77
2022/10/12 09:38:50;;;;;;;3.05;1.92;;;;;;;12.15;78.96;101574.28;4973596;28;20034;-77
2022/10/12 09:41:30;;;;;;;2.60;1.90;;;;;;;12.10;79.25;101590.72;4985216;28;20027;-79
2022/10/12 09:44:02;;;;;;;6.93;2.00;;;;;;;11.95;79.30;101573.59;4964848;28;20043;-76
2022/10/12 09:46:43;;;;;;;4.43;1.73;;;;;;;11.94;78.43;101579.91;4958821;29;20035;-78
2022/10/12 09:49:10;;;;;;;5.10;1.70;;;;;;;11.94;78.23;101585.25;4957858;29;20114;-77
2022/10/12 09:51:36;;;;;;;6.83;1.87;;;;;;;11.84;78.38;101579.13;4957423;29;20174;-80
2022/10/12 09:54:03;;;;;;;3.20;2.00;;;;;;;11.64;79.03;101577.56;4957363;29;20038;-78
2022/10/12 09:56:40;;;;;;;7.73;1.80;;;;;;;11.58;80.04;101586.16;4957415;29;20027;-79
2022/10/12 09:59:32;;;;;;;5.27;1.40;;;;;;;11.44;79.25;101585.66;4957268;29;20078;-79
2022/10/12 10:02:03;;;;;;;4.93;1.60;;;;;;;11.47;79.33;101595.19;4957167;29;20031;-80
2022/10/12 10:04:29;;;;;;;3.13;1.50;;;;;;;11.46;78.64;101598.84;4958995;29;20043;-77
2022/10/12 10:07:19;;;;;;;4.37;1.53;;;;;;;11.28;79.63;101585.47;4941084;29;20023;-79
2022/10/12 10:09:46;;;;;;;4.73;1.60;;;;;;;11.08;71.69;101590.03;4940719;29;20043;-78
2022/10/12 10:12:27;;;;;;;4.07;1.60;;;;;;;11.05;73.76;101594.81;4956564;29;20522;-78
2022/10/12 10:14:57;;;;;;;3.93;1.30;;;;;;;11.03;73.25;101581.63;4956981;29;20030;-77
2022/10/12 10:17:35;;;;;;;3.30;1.30;;;;;;;10.92;74.06;101575.63;4956651;29;20032;-79
2022/10/12 10:20:04;;;;;;;5.63;1.65;;;;;;;11.00;73.53;101591.75;4956666;29;20125;-77
2022/10/12 10:22:31;;;;;;;4.67;1.07;;;;;;;10.89;72.03;101594.56;4956387;29;20046;-78
2022/10/12 10:24:58;;;;;;;2.93;1.40;;;;;;;10.89;72.68;101602.56;4956601;29;20035;-78
2022/10/12 10:27:27;;;;;;;3.10;1.47;;;;;;;10.83;72.02;101607.47;4956356;29;20038;-78
2022/10/12 10:30:20;;;;;;;2.38;1.10;;;;;;;10.85;72.30;101594.84;4956175;29;20495;-79
2022/10/12 10:47:14;;;;;;;8.40;1.73;;;;;;;10.81;72.16;101582.81;5072129;23;20075;-77
2022/10/12 10:49:47;;;;;;;1.50;1.00;;;;;;;11.00;71.80;101602.41;4904058;29;20071;-75
2022/10/12 10:52:22;;;;;;;5.07;1.90;;;;;;;10.96;70.63;101608.97;4920447;29;20030;-75
2022/10/12 10:54:48;;;;;;;1.97;1.37;;;;;;;10.91;70.58;101609.41;4937165;29;20027;-77
2022/10/12 10:57:13;;;;;;;2.40;1.30;;;;;;;10.93;72.03;101618.09;4937213;29;20042;-78
2022/10/12 10:59:43;;;;;;;2.60;1.47;;;;;;;10.92;69.88;101624.44;4937028;29;20435;-76
2022/10/12 11:02:23;;;;;;;2.70;1.23;;;;;;;10.95;71.04;101625.97;4936842;29;20087;-76
2022/10/12 11:04:56;;;;;;;2.70;1.40;;;;;;;10.92;72.25;101619.09;4936951;29;20034;-77
2022/10/12 11:07:50;;;;;;;3.53;1.17;;;;;;;10.92;73.25;101621.75;4936939;29;20039;-78
2022/10/12 11:10:46;;;;;;;2.57;1.40;;;;;;;10.84;74.26;101622.47;4936263;29;20388;-79
2022/10/12 11:13:30;;;;;;;3.87;1.27;;;;;;;10.86;75.15;101627.66;4937519;29;20489;-76
2022/10/12 11:16:04;;;;;;;3.03;1.80;;;;;;;10.93;75.14;101622.59;4920577;29;20431;-79
2022/10/12 11:18:39;;;;;;;5.73;1.13;;;;;;;10.92;75.42;101626.25;4935482;29;20471;-79
2022/10/12 11:21:17;;;;;;;8.73;1.80;;;;;;;10.82;75.36;101620.94;4937178;29;20059;-77
2022/10/12 11:24:22;;;;;;;3.35;1.30;;;;;;;10.80;75.96;101629.09;4936827;29;20476;-79
2022/10/12 11:26:53;;;;;;;3.63;1.40;;;;;;;10.71;75.95;101611.31;4908887;29;20504;-79
2022/10/12 11:29:19;;;;;;;4.40;1.30;;;;;;;10.74;75.84;101613.69;4936887;29;20024;-77
2022/10/12 11:31:57;;;;;;;5.13;2.00;;;;;;;10.81;73.86;101628.09;4937897;29;20055;-78
2022/10/12 11:34:27;;;;;;;7.78;1.83;;;;;;;10.82;72.64;101627.13;4936649;29;20423;-76
2022/10/12 11:36:54;;;;;;;3.03;1.80;;;;;;;10.86;71.35;101625.84;4938311;29;20028;-76
2022/10/12 11:39:43;;;;;;;7.10;3.00;;;;;;;10.87;72.44;101621.34;4942103;29;20032;-75
2022/10/12 11:42:21;;;;;;;4.00;1.17;;;;;;;10.80;73.74;101622.91;4941195;29;20036;-75
2022/10/12 11:44:47;;;;;;;2.83;1.48;;;;;;;10.73;73.44;101627.16;4939352;29;20039;-76
2022/10/12 11:47:24;;;;;;;5.40;1.30;;;;;;;10.67;73.82;101631.19;4939730;29;20047;-77
2022/10/12 11:50:01;;;;;;;2.63;1.70;;;;;;;10.70;74.42;101633.59;4940881;29;20035;-79
2022/10/12 11:52:38;;;;;;;1.50;1.40;;;;;;;10.67;75.13;101633.84;4938988;29;20347;-78
2022/10/12 11:55:19;;;;;;;3.77;1.57;;;;;;;10.64;75.35;101634.16;4936559;29;20035;-77
2022/10/12 11:57:47;;;;;;;3.90;1.30;;;;;;;10.61;75.93;101638.91;4936481;29;20118;-78
2022/10/12 12:00:22;;;;;;;2.83;1.53;;;;;;;10.58;76.41;101640.03;4938213;29;20031;-77
2022/10/12 12:03:14;;;;;;;5.40;1.60;;;;;;;10.52;76.02;101635.28;4937578;29;20038;-78
2022/10/12 12:05:39;;;;;;;2.83;1.43;;;;;;;10.48;76.01;101639.22;4891347;29;20039;-77
2022/10/12 12:08:05;;;;;;;2.90;1.27;;;;;;;10.53;76.87;101636.97;4935272;29;20031;-78
2022/10/12 12:10:33;;;;;;;3.23;1.10;;;;;;;10.44;76.68;101643.16;4937443;29;20031;-77
2022/10/12 12:13:16;;;;;;;2.03;1.30;;;;;;;10.45;77.17;101639.50;4937097;29;20367;-78
2022/10/12 12:15:51;;;;;;;2.77;1.10;;;;;;;10.47;76.71;101650.84;4937388;29;20095;-78
2022/10/12 12:18:18;;;;;;;2.87;1.23;;;;;;;10.50;76.99;101637.25;4937548;29;20042;-77
2022/10/12 12:20:45;;;;;;;4.50;1.20;;;;;;;10.65;76.35;101641.16;4939382;29;20036;-77
2022/10/12 12:23:29;;;;;;;2.90;1.57;;;;;;;10.73;74.90;101643.13;4904721;29;20578;-78
2022/10/12 12:26:10;;;;;;;3.77;1.40;;;;;;;10.74;75.57;101655.47;4939203;29;20027;-79
2022/10/12 12:28:38;;;;;;;1.73;1.20;;;;;;;10.68;75.04;101643.53;4938134;29;20042;-79
2022/10/12 12:31:06;;;;;;;;;;;;;;;10.75;74.74;101644.66;4939470;29;20172;-76
2022/10/12 12:33:37;;;;;;;10.73;2.80;;;;;;;10.85;73.76;101649.97;4937938;29;19914;-76
2022/10/12 12:36:06;;;;;;;1.97;1.30;;;;;;;11.26;72.47;101640.75;4939399;29;20036;-75
2022/10/12 12:38:34;;;;;;;8.90;1.60;;;;;;;11.38;72.31;101655.59;4941095;29;20118;-79
2022/10/12 12:41:04;;;;;;;4.57;1.37;;;;;;;11.12;71.37;101655.38;4936422;29;20090;-82